createdAt,value
2019-03-23T00:00:53.852Z,20.87
2019-03-23T00:03:25.833Z,17.70
2019-03-23T00:05:58.404Z,19.00
2019-03-23T00:08:31.292Z,21.13
2019-03-23T00:11:03.074Z,21.83
2019-03-23T00:13:35.038Z,14.13
2019-03-23T00:16:08.900Z,17.77
2019-03-23T00:18:41.942Z,17.40
2019-03-23T00:21:12.522Z,20.20
2019-03-23T00:23:43.966Z,23.47
2019-03-23T00:28:53.115Z,24.33
2019-03-23T00:31:24.515Z,19.90
2019-03-23T00:33:53.926Z,18.87
2019-03-23T00:36:27.722Z,20.20
2019-03-23T00:39:00.944Z,22.40
2019-03-23T00:41:30.141Z,21.93
2019-03-23T00:44:07.569Z,22.27
2019-03-23T00:46:38.474Z,20.60
2019-03-23T00:49:10.375Z,21.93
2019-03-23T00:51:40.370Z,19.83
2019-03-23T00:54:10.055Z,30.90
2019-03-23T00:56:40.166Z,24.13
2019-03-23T00:59:10.413Z,23.40
2019-03-23T01:01:45.968Z,22.27
2019-03-23T01:04:10.534Z,27.60
2019-03-23T01:06:51.729Z,24.90
2019-03-23T01:09:17.039Z,21.40
2019-03-23T01:11:50.023Z,24.97
2019-03-23T01:14:19.707Z,22.97
2019-03-23T01:16:51.391Z,20.83
2019-03-23T01:19:21.580Z,19.70
2019-03-23T01:21:56.761Z,24.52
2019-03-23T01:24:28.893Z,19.63
2019-03-23T01:26:59.034Z,22.60
2019-03-23T01:29:31.064Z,19.83
2019-03-23T01:31:59.385Z,21.70
2019-03-23T01:34:33.077Z,28.10
2019-03-23T01:37:04.105Z,27.23
2019-03-23T01:39:35.041Z,24.80
2019-03-23T01:42:04.049Z,25.50
2019-03-23T01:44:33.041Z,24.65
2019-03-23T01:47:04.644Z,23.40
2019-03-23T01:49:33.668Z,19.37
2019-03-23T01:52:17.980Z,25.80
2019-03-23T01:57:27.723Z,20.87
2019-03-23T02:00:03.696Z,27.83
2019-03-23T02:02:32.623Z,27.53
2019-03-23T02:05:04.253Z,23.23
2019-03-23T02:07:36.292Z,23.37
2019-03-23T02:10:09.745Z,34.43
2019-03-23T02:12:40.926Z,28.70
2019-03-23T02:15:11.671Z,29.13
2019-03-23T02:17:41.530Z,32.33
2019-03-23T02:20:12.236Z,29.77
2019-03-23T02:22:44.070Z,29.60
2019-03-23T02:25:15.586Z,29.97
2019-03-23T02:27:45.908Z,28.57
2019-03-23T02:30:15.844Z,28.35
2019-03-23T02:32:50.079Z,26.97
2019-03-23T02:35:16.101Z,24.37
2019-03-23T02:37:47.377Z,29.00
2019-03-23T02:40:22.076Z,26.20
2019-03-23T02:42:49.991Z,26.30
2019-03-23T02:45:20.588Z,28.60
2019-03-23T02:47:51.696Z,29.87
2019-03-23T02:50:21.814Z,26.60
2019-03-23T02:52:51.403Z,27.10
2019-03-23T02:55:21.605Z,25.57
2019-03-23T02:57:54.976Z,26.50
2019-03-23T03:00:27.573Z,33.63
2019-03-23T03:02:55.916Z,27.00
2019-03-23T03:05:25.088Z,26.90
2019-03-23T03:07:55.229Z,31.13
2019-03-23T03:10:37.507Z,26.00
2019-03-23T03:13:08.044Z,27.73
2019-03-23T03:15:43.991Z,24.73
2019-03-23T03:18:14.238Z,25.73
2019-03-23T03:20:44.266Z,24.00
2019-03-23T03:23:14.894Z,24.30
2019-03-23T03:25:48.445Z,28.03
2019-03-23T03:28:22.802Z,25.77
2019-03-23T03:30:54.534Z,25.40
2019-03-23T03:33:25.743Z,24.87
2019-03-23T03:35:57.909Z,24.80
2019-03-23T03:38:29.749Z,25.47
2019-03-23T03:43:36.981Z,25.30
2019-03-23T03:46:04.786Z,27.10
2019-03-23T03:48:38.731Z,29.00
2019-03-23T03:51:08.480Z,24.20
2019-03-23T03:53:39.955Z,28.13
2019-03-23T03:56:10.151Z,24.83
2019-03-23T03:58:42.524Z,28.47
2019-03-23T04:01:12.155Z,26.67
2019-03-23T04:03:42.295Z,27.25
2019-03-23T04:06:12.479Z,29.75
2019-03-23T04:08:43.457Z,29.80
2019-03-23T04:11:15.393Z,28.43
2019-03-23T04:13:46.245Z,28.40
2019-03-23T04:16:17.273Z,24.87
2019-03-23T04:18:48.503Z,28.27
2019-03-23T04:21:18.964Z,30.67
2019-03-23T04:23:53.114Z,28.17
2019-03-23T04:26:29.342Z,21.13
2019-03-23T04:29:00.110Z,26.07
2019-03-23T04:31:31.406Z,24.03
2019-03-23T04:34:02.608Z,26.83
2019-03-23T04:39:12.510Z,24.37
2019-03-23T04:41:42.424Z,29.37
2019-03-23T04:44:15.587Z,27.80
2019-03-23T04:46:46.441Z,26.73
2019-03-23T04:49:17.410Z,28.70
2019-03-23T04:51:53.219Z,28.80
2019-03-23T04:54:21.681Z,28.00
2019-03-23T04:56:59.233Z,27.70
2019-03-23T04:59:29.931Z,29.73
2019-03-23T05:02:00.463Z,27.63
2019-03-23T05:04:30.138Z,25.50
2019-03-23T05:06:59.795Z,39.70
2019-03-23T05:09:38.165Z,31.67
2019-03-23T05:12:13.539Z,25.10
2019-03-23T05:14:49.966Z,31.87
2019-03-23T05:17:18.765Z,28.40
2019-03-23T05:19:49.712Z,26.57
2019-03-23T05:22:21.881Z,28.13
2019-03-23T05:24:52.547Z,28.60
2019-03-23T05:27:23.277Z,30.90
2019-03-23T05:29:57.011Z,27.23
2019-03-23T05:32:26.081Z,31.30
2019-03-23T05:34:56.799Z,26.27
2019-03-23T05:37:33.508Z,27.70
2019-03-23T05:40:04.281Z,27.40
2019-03-23T05:42:34.211Z,29.30
2019-03-23T05:47:44.302Z,28.17
2019-03-23T05:50:13.542Z,28.30
2019-03-23T05:52:43.606Z,26.77
2019-03-23T05:58:05.465Z,26.90
2019-03-23T06:00:36.406Z,28.90
2019-03-23T06:03:07.061Z,26.90
2019-03-23T06:05:38.349Z,28.07
2019-03-23T06:08:08.360Z,25.57
2019-03-23T06:10:39.346Z,32.20
2019-03-23T06:13:10.257Z,29.92
2019-03-23T06:15:47.110Z,26.93
2019-03-23T06:18:20.730Z,27.30
2019-03-23T06:20:51.815Z,29.73
2019-03-23T06:23:28.237Z,29.50
2019-03-23T06:25:58.226Z,29.10
2019-03-23T06:28:31.781Z,30.35
2019-03-23T06:31:05.112Z,26.43
2019-03-23T06:33:37.598Z,25.80
2019-03-23T06:36:08.689Z,31.33
2019-03-23T06:38:39.309Z,29.37
2019-03-23T06:41:08.419Z,29.13
2019-03-23T06:43:39.699Z,26.80
2019-03-23T06:46:10.198Z,30.37
2019-03-23T06:48:39.794Z,27.93
2019-03-23T06:51:10.787Z,22.27
2019-03-23T06:53:42.596Z,24.07
2019-03-23T06:56:15.143Z,26.57
2019-03-23T07:01:34.445Z,26.57
2019-03-23T07:04:07.400Z,29.50
2019-03-23T07:06:41.767Z,24.97
2019-03-23T07:09:16.245Z,28.53
2019-03-23T07:11:42.353Z,26.37
2019-03-23T07:14:13.677Z,23.27
2019-03-23T07:16:45.706Z,25.93
2019-03-23T07:19:14.561Z,24.98
2019-03-23T07:21:44.401Z,22.17
2019-03-23T07:24:18.439Z,27.13
2019-03-23T07:26:48.574Z,24.95
2019-03-23T07:29:17.741Z,28.20
2019-03-23T07:31:50.276Z,24.97
2019-03-23T07:34:21.970Z,27.30
2019-03-23T07:36:52.816Z,25.13
2019-03-23T07:39:28.076Z,22.20
2019-03-23T07:41:55.273Z,24.75
2019-03-23T07:44:26.333Z,26.73
2019-03-23T07:46:56.457Z,26.62
2019-03-23T07:49:27.726Z,23.70
2019-03-23T07:54:43.620Z,21.83
2019-03-23T07:57:18.636Z,25.23
2019-03-23T08:02:27.988Z,21.10
2019-03-23T08:04:57.709Z,20.07
2019-03-23T08:07:30.992Z,21.57
2019-03-23T08:10:01.437Z,21.00
2019-03-23T08:12:33.197Z,21.37
2019-03-23T08:15:02.821Z,23.20
2019-03-23T08:17:34.591Z,22.45
2019-03-23T08:20:03.691Z,23.00
2019-03-23T08:22:34.591Z,23.25
2019-03-23T08:27:46.446Z,24.23
2019-03-23T08:30:17.126Z,24.37
2019-03-23T08:32:50.101Z,23.63
2019-03-23T08:38:02.505Z,27.50
2019-03-23T08:40:35.782Z,23.43
2019-03-23T08:43:04.535Z,22.17
2019-03-23T08:45:39.494Z,26.20
2019-03-23T08:48:11.441Z,56.03
2019-03-23T08:50:42.643Z,27.23
2019-03-23T08:53:14.608Z,24.50
2019-03-23T08:55:45.077Z,26.70
2019-03-23T08:58:18.126Z,25.55
2019-03-23T09:00:51.816Z,21.47
2019-03-23T09:03:24.778Z,24.10
2019-03-23T09:05:55.135Z,26.30
2019-03-23T09:08:25.447Z,21.60
2019-03-23T09:10:56.438Z,26.20
2019-03-23T09:13:40.205Z,26.15
2019-03-23T09:15:58.545Z,24.37
2019-03-23T09:18:29.215Z,25.27
2019-03-23T09:20:58.515Z,23.60
2019-03-23T09:23:29.597Z,27.13
2019-03-23T09:25:58.414Z,32.17
2019-03-23T09:28:28.584Z,30.20
2019-03-23T09:30:57.498Z,28.38
2019-03-23T09:33:26.082Z,26.07
2019-03-23T09:35:56.171Z,25.90
2019-03-23T09:38:26.263Z,34.38
2019-03-23T09:40:59.078Z,32.50
2019-03-23T09:43:28.306Z,35.30
2019-03-23T09:45:59.751Z,31.80
2019-03-23T09:48:30.530Z,32.90
2019-03-23T09:51:00.458Z,33.73
2019-03-23T09:53:30.708Z,33.10
2019-03-23T09:56:02.058Z,29.93
2019-03-23T09:58:30.396Z,31.23
2019-03-23T10:01:00.133Z,34.20
2019-03-23T10:03:30.100Z,31.83
2019-03-23T10:05:59.142Z,27.70
2019-03-23T10:08:29.654Z,30.97
2019-03-23T10:11:00.489Z,34.27
2019-03-23T10:13:33.444Z,29.50
2019-03-23T10:16:04.208Z,31.10
2019-03-23T10:21:20.463Z,33.98
2019-03-23T10:23:50.408Z,34.27
2019-03-23T10:26:21.919Z,36.70
2019-03-23T10:28:52.659Z,41.37
2019-03-23T10:31:23.491Z,33.37
2019-03-23T10:33:55.238Z,37.40
2019-03-23T10:36:26.930Z,37.67
2019-03-23T10:38:58.226Z,33.70
2019-03-23T10:41:33.051Z,43.87
2019-03-23T10:44:03.497Z,49.53
2019-03-23T10:46:34.869Z,44.70
2019-03-23T10:49:06.194Z,40.73
2019-03-23T10:51:36.981Z,40.90
2019-03-23T10:54:06.767Z,93.10
2019-03-23T10:56:36.537Z,47.60
2019-03-23T10:59:07.749Z,41.20
2019-03-23T11:01:39.489Z,42.80
2019-03-23T11:06:54.230Z,41.20
2019-03-23T11:09:28.321Z,40.87
2019-03-23T11:11:57.336Z,37.70
2019-03-23T11:14:29.445Z,40.50
2019-03-23T11:17:02.288Z,49.77
2019-03-23T11:19:34.831Z,51.48
2019-03-23T11:22:05.533Z,41.80
2019-03-23T11:24:38.035Z,43.58
2019-03-23T11:27:07.741Z,38.73
2019-03-23T11:29:45.072Z,44.60
2019-03-23T11:32:16.314Z,50.83
2019-03-23T11:34:45.370Z,42.63
2019-03-23T11:37:15.578Z,48.50
2019-03-23T11:39:48.397Z,43.80
2019-03-23T11:42:18.292Z,43.10
2019-03-23T11:44:49.505Z,65.42
2019-03-23T11:47:19.305Z,41.33
2019-03-23T11:49:49.473Z,44.80
2019-03-23T11:52:23.378Z,44.45
2019-03-23T11:54:55.425Z,42.87
2019-03-23T11:57:29.945Z,49.90
2019-03-23T11:59:59.116Z,46.00
2019-03-23T12:02:33.741Z,42.93
2019-03-23T12:05:04.350Z,41.60
2019-03-23T12:07:36.744Z,43.93
2019-03-23T12:10:07.273Z,46.30
2019-03-23T12:12:39.943Z,44.97
2019-03-23T12:15:13.352Z,40.87
2019-03-23T12:20:21.569Z,43.03
2019-03-23T12:22:51.563Z,46.40
2019-03-23T12:28:06.370Z,42.27
2019-03-23T12:30:36.703Z,43.08
2019-03-23T12:33:07.407Z,43.90
2019-03-23T12:38:21.162Z,44.30
2019-03-23T12:40:52.395Z,39.60
2019-03-23T12:43:23.198Z,42.63
2019-03-23T12:45:54.464Z,41.00
2019-03-23T12:48:25.101Z,41.03
2019-03-23T12:50:57.212Z,42.73
2019-03-23T12:53:30.042Z,44.30
2019-03-23T12:56:01.592Z,42.17
2019-03-23T12:58:33.490Z,41.77
2019-03-23T13:01:02.170Z,41.80
2019-03-23T13:03:32.797Z,45.00
2019-03-23T13:06:04.643Z,41.27
2019-03-23T13:08:35.014Z,43.53
2019-03-23T13:11:06.660Z,45.00
2019-03-23T13:13:38.684Z,45.97
2019-03-23T13:16:10.783Z,41.00
2019-03-23T13:18:40.318Z,41.60
2019-03-23T13:21:09.734Z,43.30
2019-03-23T13:23:40.842Z,37.60
2019-03-23T13:26:14.719Z,40.10
2019-03-23T13:28:49.455Z,40.97
2019-03-23T13:31:22.464Z,38.03
2019-03-23T13:33:53.914Z,38.83
2019-03-23T13:36:24.114Z,39.03
2019-03-23T13:38:55.791Z,38.97
2019-03-23T13:41:41.194Z,40.20
2019-03-23T13:44:01.538Z,42.85
2019-03-23T13:46:33.399Z,39.60
2019-03-23T13:49:05.775Z,42.87
2019-03-23T13:51:36.424Z,40.60
2019-03-23T13:54:06.734Z,38.57
2019-03-23T13:56:40.248Z,46.60
2019-03-23T13:59:11.853Z,46.63
2019-03-23T14:01:47.798Z,34.30
2019-03-23T14:04:20.616Z,38.67
2019-03-23T14:06:56.594Z,38.47
2019-03-23T14:09:28.525Z,36.17
2019-03-23T14:12:00.514Z,40.30
2019-03-23T14:14:34.389Z,38.67
2019-03-23T14:17:05.450Z,40.27
2019-03-23T14:19:37.532Z,36.50
2019-03-23T14:22:09.679Z,36.83
2019-03-23T14:27:21.495Z,39.40
2019-03-23T14:29:51.861Z,41.60
2019-03-23T14:32:28.795Z,43.63
2019-03-23T14:34:58.358Z,47.40
2019-03-23T14:37:30.669Z,44.00
2019-03-23T14:40:02.506Z,47.37
2019-03-23T14:45:13.132Z,50.23
2019-03-23T14:47:44.768Z,44.83
2019-03-23T14:50:13.808Z,46.23
2019-03-23T14:52:42.639Z,51.83
2019-03-23T14:55:15.955Z,45.50
2019-03-23T14:57:42.966Z,51.80
2019-03-23T15:00:13.520Z,49.23
2019-03-23T15:02:46.947Z,48.17
2019-03-23T15:05:19.518Z,47.97
2019-03-23T15:07:50.484Z,45.13
2019-03-23T15:10:20.541Z,48.48
2019-03-23T15:12:52.938Z,48.80
2019-03-23T15:15:22.912Z,49.83
2019-03-23T15:17:57.152Z,48.73
2019-03-23T15:20:29.652Z,49.90
2019-03-23T15:22:58.505Z,49.80
2019-03-23T15:25:29.257Z,45.33
2019-03-23T15:28:00.308Z,41.30
2019-03-23T15:30:31.340Z,40.20
2019-03-23T15:33:02.548Z,48.03
2019-03-23T15:38:13.550Z,43.83
2019-03-23T15:40:42.645Z,41.60
2019-03-23T15:43:15.145Z,44.10
2019-03-23T15:45:45.516Z,46.60
2019-03-23T15:48:14.330Z,42.63
2019-03-23T15:53:26.598Z,38.70
2019-03-23T15:55:58.286Z,46.50
2019-03-23T15:58:29.340Z,54.57
2019-03-23T16:01:01.648Z,56.00
2019-03-23T16:03:35.688Z,59.03
2019-03-23T16:06:07.310Z,61.30
2019-03-23T16:08:39.498Z,54.37
2019-03-23T16:11:09.897Z,62.93
2019-03-23T16:13:40.637Z,62.80
2019-03-23T16:16:15.394Z,69.10
2019-03-23T16:21:25.550Z,68.10
2019-03-23T16:23:55.668Z,71.57
2019-03-23T16:26:24.744Z,72.27
2019-03-23T16:28:56.717Z,65.20
2019-03-23T16:31:25.636Z,61.73
2019-03-23T16:33:59.137Z,64.00
2019-03-23T16:36:30.651Z,64.53
2019-03-23T16:39:02.923Z,65.97
2019-03-23T16:41:32.385Z,68.23
2019-03-23T16:44:06.870Z,70.93
2019-03-23T16:46:37.992Z,69.93
2019-03-23T16:49:08.931Z,65.87
2019-03-23T16:51:38.235Z,69.80
2019-03-23T16:54:11.013Z,70.17
2019-03-23T16:56:40.215Z,76.87
2019-03-23T16:59:10.331Z,66.77
2019-03-23T17:01:45.466Z,79.07
2019-03-23T17:04:16.077Z,66.72
2019-03-23T17:06:46.860Z,68.20
2019-03-23T17:09:17.229Z,81.40
2019-03-23T17:11:48.822Z,89.33
2019-03-23T17:14:20.780Z,88.00
2019-03-23T17:16:56.012Z,81.20
2019-03-23T17:19:26.581Z,77.83
2019-03-23T17:21:57.698Z,90.43
2019-03-23T17:24:28.605Z,88.30
2019-03-23T17:26:59.198Z,85.10
2019-03-23T17:29:28.706Z,84.77
2019-03-23T17:32:02.279Z,84.30
2019-03-23T17:34:34.725Z,86.92
2019-03-23T17:37:09.958Z,89.87
2019-03-23T17:39:40.274Z,88.40
2019-03-23T17:45:01.044Z,84.00
2019-03-23T17:47:35.971Z,89.47
2019-03-23T17:50:05.573Z,90.30
2019-03-23T17:52:38.463Z,89.47
2019-03-23T17:55:08.686Z,84.57
2019-03-23T17:57:41.975Z,79.83
2019-03-23T18:00:16.642Z,92.30
2019-03-23T18:02:46.922Z,85.50
2019-03-23T18:05:21.118Z,86.97
2019-03-23T18:07:51.749Z,86.70
2019-03-23T18:10:23.103Z,89.63
2019-03-23T18:12:55.084Z,99.47
2019-03-23T18:18:06.971Z,96.73
2019-03-23T18:20:39.744Z,102.13
2019-03-23T18:23:10.179Z,97.03
2019-03-23T18:25:42.881Z,95.93
2019-03-23T18:28:17.714Z,97.87
2019-03-23T18:30:48.078Z,97.57
2019-03-23T18:33:19.250Z,100.57
2019-03-23T18:35:50.813Z,109.47
2019-03-23T18:38:19.998Z,111.95
2019-03-23T18:40:55.250Z,106.73
2019-03-23T18:43:27.679Z,112.77
2019-03-23T18:45:55.793Z,109.20
2019-03-23T18:48:28.064Z,105.73
2019-03-23T18:50:59.125Z,105.47
2019-03-23T18:53:32.193Z,106.27
2019-03-23T18:56:03.865Z,111.60
2019-03-23T18:58:34.300Z,104.60
2019-03-23T19:01:07.143Z,110.17
2019-03-23T19:03:36.487Z,113.40
2019-03-23T19:06:11.473Z,109.20
2019-03-23T19:08:42.726Z,113.87
2019-03-23T19:11:15.022Z,114.72
2019-03-23T19:13:47.993Z,109.00
2019-03-23T19:18:54.886Z,115.60
2019-03-23T19:21:22.734Z,109.83
2019-03-23T19:23:52.971Z,117.70
2019-03-23T19:26:24.205Z,94.20
2019-03-23T19:29:00.485Z,109.50
2019-03-23T19:31:31.408Z,117.93
2019-03-23T19:34:01.784Z,125.70
2019-03-23T19:36:35.962Z,116.40
2019-03-23T19:39:16.040Z,111.13
2019-03-23T19:41:44.800Z,114.10
2019-03-23T19:47:03.704Z,115.03
2019-03-23T19:49:37.993Z,113.67
2019-03-23T19:52:08.536Z,118.23
2019-03-23T19:54:38.842Z,112.60
2019-03-23T19:57:08.865Z,106.13
2019-03-23T19:59:38.779Z,126.20
2019-03-23T20:02:10.542Z,116.13
2019-03-23T20:04:40.502Z,122.77
2019-03-23T20:07:11.700Z,133.63
2019-03-23T20:09:44.057Z,121.70
2019-03-23T20:12:15.500Z,119.60
2019-03-23T20:14:49.534Z,117.62
2019-03-23T20:17:19.679Z,118.70
2019-03-23T20:22:29.516Z,121.53
2019-03-23T20:25:03.634Z,124.30
2019-03-23T20:27:35.965Z,120.27
2019-03-23T20:30:05.924Z,120.43
2019-03-23T20:32:35.428Z,121.23
2019-03-23T20:35:05.235Z,122.30
2019-03-23T20:40:17.738Z,120.27
2019-03-23T20:42:49.801Z,123.03
2019-03-23T20:45:29.107Z,131.25
2019-03-23T20:47:59.485Z,129.23
2019-03-23T20:50:29.069Z,117.40
2019-03-23T20:52:57.972Z,128.83
2019-03-23T20:55:30.849Z,126.03
2019-03-23T20:58:01.982Z,126.87
2019-03-23T21:00:30.847Z,127.60
2019-03-23T21:02:59.227Z,115.93
2019-03-23T21:05:34.489Z,121.87
2019-03-23T21:08:09.451Z,129.23
2019-03-23T21:10:41.309Z,131.80
2019-03-23T21:13:09.967Z,129.00
2019-03-23T21:15:44.933Z,122.03
2019-03-23T21:18:14.259Z,118.30
2019-03-23T21:20:45.889Z,117.93
2019-03-23T21:23:18.075Z,123.27
2019-03-23T21:25:51.712Z,123.53
2019-03-23T21:28:24.777Z,125.73
2019-03-23T21:30:58.701Z,123.77
2019-03-23T21:33:38.663Z,127.27
2019-03-23T21:36:04.417Z,119.73
2019-03-23T21:38:52.373Z,126.60
2019-03-23T21:41:12.317Z,116.40
2019-03-23T21:43:41.430Z,113.00
2019-03-23T21:46:11.411Z,124.53
2019-03-23T21:48:45.813Z,112.37
2019-03-23T21:51:16.507Z,126.50
2019-03-23T21:54:08.000Z,117.08
2019-03-23T21:56:41.535Z,116.90
2019-03-23T21:59:11.513Z,109.97
2019-03-23T22:01:43.706Z,116.97
2019-03-23T22:04:17.530Z,119.17
2019-03-23T22:06:48.985Z,105.30
2019-03-23T22:09:24.008Z,109.97
2019-03-23T22:11:58.228Z,101.87
2019-03-23T22:14:41.511Z,108.65
2019-03-23T22:17:05.876Z,106.10
2019-03-23T22:19:36.464Z,101.87
2019-03-23T22:22:12.228Z,95.17
2019-03-23T22:24:39.944Z,103.93
2019-03-23T22:27:19.199Z,105.30
2019-03-23T22:29:50.406Z,103.75
2019-03-23T22:32:21.579Z,101.80
2019-03-23T22:34:52.015Z,94.00
2019-03-23T22:37:24.257Z,94.43
2019-03-23T22:39:59.734Z,88.40
2019-03-23T22:42:30.522Z,100.43
2019-03-23T22:45:01.436Z,104.73
2019-03-23T22:47:34.613Z,100.13
2019-03-23T22:50:10.882Z,99.73
2019-03-23T22:52:43.231Z,92.77
2019-03-23T22:55:11.957Z,86.87
2019-03-23T22:57:46.645Z,87.03
2019-03-23T23:00:32.919Z,90.60
2019-03-23T23:03:04.288Z,84.10
2019-03-23T23:05:34.733Z,102.80
2019-03-23T23:08:04.750Z,86.57
2019-03-23T23:10:35.624Z,85.33
2019-03-23T23:13:13.979Z,93.20
2019-03-23T23:15:45.286Z,88.40
2019-03-23T23:18:18.135Z,103.73
2019-03-23T23:20:49.997Z,86.70
2019-03-23T23:23:20.132Z,90.93
2019-03-23T23:26:04.135Z,81.33
2019-03-23T23:31:18.815Z,79.30
2019-03-23T23:33:50.679Z,88.07
2019-03-23T23:36:21.919Z,86.70
2019-03-23T23:38:53.964Z,92.50
2019-03-23T23:41:30.555Z,81.37
2019-03-23T23:44:10.326Z,82.35
2019-03-23T23:46:46.162Z,89.60
2019-03-23T23:49:22.521Z,81.50
2019-03-23T23:51:56.857Z,71.80
2019-03-23T23:54:27.876Z,74.77
2019-03-23T23:57:03.534Z,78.10
2019-03-23T23:59:36.089Z,73.40
